createdAt,value
2023-04-05T00:00:08.713Z,95892.7
2023-04-05T00:01:10.602Z,95889.3
2023-04-05T00:02:12.580Z,95884.9
2023-04-05T00:03:15.284Z,95887.4
2023-04-05T00:04:17.716Z,95887.3
2023-04-05T00:05:19.832Z,95888.3
2023-04-05T00:06:21.507Z,95887.5
2023-04-05T00:07:23.454Z,95884.5
2023-04-05T00:08:25.288Z,95885.7
2023-04-05T00:09:27.372Z,95880.5
2023-04-05T00:10:29.321Z,95881.2
2023-04-05T00:11:31.081Z,95880.8
2023-04-05T00:12:33.169Z,95879.4
2023-04-05T00:13:35.030Z,95877.9
2023-04-05T00:14:36.904Z,95879.4
2023-04-05T00:15:38.620Z,95881.8
2023-04-05T00:16:40.922Z,95874.8
2023-04-05T00:17:43.210Z,95880
2023-04-05T00:18:45.371Z,95876.3
2023-04-05T00:19:47.472Z,95878.2
2023-04-05T00:20:49.377Z,95880.4
2023-04-05T00:21:51.451Z,95873.8
2023-04-05T00:22:53.158Z,95875.1
2023-04-05T00:23:55.217Z,95873.6
2023-04-05T00:24:57.320Z,95872.5
2023-04-05T00:25:59.211Z,95879.2
2023-04-05T00:27:01.516Z,95875
2023-04-05T00:28:03.453Z,95870.6
2023-04-05T00:29:05.544Z,95871.6
2023-04-05T00:30:07.630Z,95873.7
2023-04-05T00:31:09.722Z,95871.4
2023-04-05T00:32:11.962Z,95868.2
2023-04-05T00:33:14.028Z,95871
2023-04-05T00:34:15.954Z,95871.2
2023-04-05T00:35:18.044Z,95869
2023-04-05T00:36:20.200Z,95866.4
2023-04-05T00:37:22.108Z,95868.4
2023-04-05T00:38:24.202Z,95867.2
2023-04-05T00:39:26.329Z,95866.9
2023-04-05T00:40:28.051Z,95869.5
2023-04-05T00:41:30.138Z,95870.1
2023-04-05T00:42:32.122Z,95869.1
2023-04-05T00:43:34.230Z,95867.4
2023-04-05T00:44:36.116Z,95863.1
2023-04-05T00:45:37.987Z,95862.1
2023-04-05T00:46:40.160Z,95856.1
2023-04-05T00:47:42.215Z,95860.4
2023-04-05T00:48:44.208Z,95855.2
2023-04-05T00:49:46.340Z,95858.3
2023-04-05T00:50:48.476Z,95863.8
2023-04-05T00:51:50.458Z,95856.1
2023-04-05T00:52:52.553Z,95855.3
2023-04-05T00:53:54.425Z,95852.3
2023-04-05T00:54:56.443Z,95856
2023-04-05T00:55:58.372Z,95853.6
2023-04-05T00:57:00.110Z,95852.4
2023-04-05T00:58:02.098Z,95852.4
2023-04-05T00:59:04.408Z,95852
2023-04-05T01:00:06.342Z,95849.9
2023-04-05T01:01:08.336Z,95853.4
2023-04-05T01:02:09.861Z,95849.2
2023-04-05T01:03:11.946Z,95849.8
2023-04-05T01:04:13.891Z,95850.4
2023-04-05T01:05:16.252Z,95846
2023-04-05T01:06:18.341Z,95848.5
2023-04-05T01:07:20.239Z,95844.3
2023-04-05T01:08:22.114Z,95840.3
2023-04-05T01:09:24.262Z,95842.1
2023-04-05T01:10:26.345Z,95837.8
2023-04-05T01:11:28.240Z,95839.9
2023-04-05T01:12:30.333Z,95842.3
2023-04-05T01:13:32.511Z,95839.5
2023-04-05T01:14:37.928Z,95837.8
2023-04-05T01:15:40.110Z,95837.7
2023-04-05T01:16:42.398Z,95835
2023-04-05T01:17:44.855Z,95835.9
2023-04-05T01:18:47.005Z,95835.1
2023-04-05T01:19:49.000Z,95829.9
2023-04-05T01:20:50.892Z,95832.4
2023-04-05T01:21:52.973Z,95832.7
2023-04-05T01:22:55.059Z,95828.4
2023-04-05T01:23:56.945Z,95825
2023-04-05T01:24:58.816Z,95828
2023-04-05T01:26:00.929Z,95827.6
2023-04-05T01:27:02.815Z,95827
2023-04-05T01:28:05.018Z,95825.4
2023-04-05T01:29:07.162Z,95824.7
2023-04-05T01:30:09.322Z,95824.6
2023-04-05T01:31:11.353Z,95819.3
2023-04-05T01:32:13.522Z,95821.9
2023-04-05T01:33:15.414Z,95824.2
2023-04-05T01:34:17.542Z,95818.1
2023-04-05T01:35:22.043Z,95824.9
2023-04-05T01:36:25.396Z,95819.6
2023-04-05T01:37:27.494Z,95821.6
2023-04-05T01:38:29.568Z,95814.6
2023-04-05T01:39:31.501Z,95814
2023-04-05T01:40:33.271Z,95812.5
2023-04-05T01:41:35.353Z,95815.5
2023-04-05T01:42:37.113Z,95807.4
2023-04-05T01:43:39.224Z,95812.9
2023-04-05T01:44:41.392Z,95808.6
2023-04-05T01:45:43.533Z,95804.5
2023-04-05T01:46:45.821Z,95807.1
2023-04-05T01:47:48.152Z,95800.5
2023-04-05T01:48:50.208Z,95805.2
2023-04-05T01:49:52.112Z,95803.7
2023-04-05T01:50:53.840Z,95801.6
2023-04-05T01:51:56.010Z,95802.7
2023-04-05T01:52:57.953Z,95803.7
2023-04-05T01:53:59.867Z,95800.3
2023-04-05T01:55:01.754Z,95800.9
2023-04-05T01:56:03.698Z,95798.1
2023-04-05T01:57:05.809Z,95800
2023-04-05T01:58:07.527Z,95799.9
2023-04-05T01:59:09.619Z,95796.3
2023-04-05T02:00:11.717Z,95795.1
2023-04-05T02:01:13.822Z,95794.1
2023-04-05T02:02:15.994Z,95795.8
2023-04-05T02:03:18.472Z,95795.4
2023-04-05T02:04:20.734Z,95791.4
2023-04-05T02:05:22.657Z,95791.2
2023-04-05T02:06:24.754Z,95792.2
2023-04-05T02:07:26.458Z,95789.9
2023-04-05T02:08:28.359Z,95791.7
2023-04-05T02:09:30.444Z,95791.2
2023-04-05T02:10:32.354Z,95792.7
2023-04-05T02:11:34.439Z,95793.4
2023-04-05T02:12:36.536Z,95794.5
2023-04-05T02:13:38.222Z,95786.5
2023-04-05T02:14:40.128Z,95789.3
2023-04-05T02:15:42.164Z,95789.6
2023-04-05T02:16:44.782Z,95787.7
2023-04-05T02:17:47.589Z,95789.8
2023-04-05T02:18:49.551Z,95789
2023-04-05T02:19:51.231Z,95787.8
2023-04-05T02:20:53.157Z,95786.7
2023-04-05T02:21:55.069Z,95784.7
2023-04-05T02:22:57.200Z,95785.2
2023-04-05T02:23:59.207Z,95783.3
2023-04-05T02:25:01.388Z,95785.3
2023-04-05T02:26:03.343Z,95784
2023-04-05T02:27:05.427Z,95783.2
2023-04-05T02:28:07.116Z,95778.2
2023-04-05T02:29:09.688Z,95779.7
2023-04-05T02:30:11.843Z,95778.8
2023-04-05T02:31:13.942Z,95779.4
2023-04-05T02:32:16.125Z,95781.9
2023-04-05T02:33:18.187Z,95777.2
2023-04-05T02:34:20.057Z,95778.4
2023-04-05T02:35:22.303Z,95778.2
2023-04-05T02:36:24.437Z,95777
2023-04-05T02:37:26.316Z,95770.2
2023-04-05T02:38:28.207Z,95774.8
2023-04-05T02:39:30.078Z,95770.7
2023-04-05T02:40:31.771Z,95768
2023-04-05T02:41:34.028Z,95773.3
2023-04-05T02:42:35.755Z,95766.5
2023-04-05T02:43:37.633Z,95770.5
2023-04-05T02:44:39.706Z,95773.1
2023-04-05T02:45:41.758Z,95766
2023-04-05T02:46:44.152Z,95765
2023-04-05T02:47:46.438Z,95765.1
2023-04-05T02:48:48.616Z,95764.9
2023-04-05T02:49:50.725Z,95762.8
2023-04-05T02:50:52.823Z,95759.7
2023-04-05T02:51:54.728Z,95765.2
2023-04-05T02:52:56.401Z,95763.3
2023-04-05T02:53:58.521Z,95761.3
2023-04-05T02:55:00.637Z,95760.3
2023-04-05T02:56:02.746Z,95758.4
2023-04-05T02:57:04.654Z,95757.6
2023-04-05T02:58:06.730Z,95756.6
2023-04-05T02:59:08.884Z,95756.2
2023-04-05T03:00:10.846Z,95758.6
2023-04-05T03:01:13.206Z,95757.8
2023-04-05T03:02:15.387Z,95756.3
2023-04-05T03:03:17.872Z,95759.6
2023-04-05T03:04:19.954Z,95760.8
2023-04-05T03:05:21.888Z,95762.5
2023-04-05T03:06:23.784Z,95763.1
2023-04-05T03:07:25.509Z,95766.4
2023-04-05T03:08:27.268Z,95764.4
2023-04-05T03:09:29.175Z,95767.2
2023-04-05T03:10:31.068Z,95763.5
2023-04-05T03:11:34.990Z,95759.6
2023-04-05T03:12:36.879Z,95756.3
2023-04-05T03:13:38.973Z,95762.1
2023-04-05T03:14:40.670Z,95761.6
2023-04-05T03:15:43.589Z,95760.3
2023-04-05T03:16:45.854Z,95762
2023-04-05T03:17:47.986Z,95757.8
2023-04-05T03:18:50.064Z,95759.7
2023-04-05T03:19:52.235Z,95756.9
2023-04-05T03:20:54.239Z,95754.6
2023-04-05T03:21:56.420Z,95754.7
2023-04-05T03:22:58.331Z,95754.2
2023-04-05T03:24:00.264Z,95754
2023-04-05T03:25:02.278Z,95758.2
2023-04-05T03:26:04.549Z,95758.2
2023-04-05T03:27:06.822Z,95757.3
2023-04-05T03:28:08.957Z,95759.5
2023-04-05T03:29:10.849Z,95759.9
2023-04-05T03:30:12.556Z,95756.3
2023-04-05T03:31:14.807Z,95755.2
2023-04-05T03:32:16.790Z,95753.5
2023-04-05T03:33:18.739Z,95753.7
2023-04-05T03:34:21.043Z,95753.7
2023-04-05T03:35:23.017Z,95753.9
2023-04-05T03:36:25.077Z,95752.9
2023-04-05T03:37:26.763Z,95752.9
2023-04-05T03:38:29.396Z,95751.1
2023-04-05T03:39:31.624Z,95749.7
2023-04-05T03:40:33.810Z,95750.2
2023-04-05T03:41:35.718Z,95747.1
2023-04-05T03:42:37.443Z,95745
2023-04-05T03:43:39.569Z,95749.9
2023-04-05T03:44:41.722Z,95747.1
2023-04-05T03:45:44.489Z,95750.1
2023-04-05T03:46:46.396Z,95746.1
2023-04-05T03:47:48.647Z,95747.9
2023-04-05T03:48:50.931Z,95748.8
2023-04-05T03:49:53.056Z,95751.4
2023-04-05T03:50:54.946Z,95752.2
2023-04-05T03:51:57.069Z,95750.6
2023-04-05T03:52:59.188Z,95752
2023-04-05T03:54:01.319Z,95751.3
2023-04-05T03:55:03.420Z,95751.5
2023-04-05T03:56:05.411Z,95753.3
2023-04-05T03:57:07.501Z,95751.2
2023-04-05T03:58:09.634Z,95748.4
2023-04-05T03:59:11.872Z,95746.5
2023-04-05T04:00:13.806Z,95746.2
2023-04-05T04:01:16.154Z,95745.6
2023-04-05T04:02:18.466Z,95743
2023-04-05T04:03:20.578Z,95744.1
2023-04-05T04:04:22.912Z,95741.7
2023-04-05T04:05:25.056Z,95741.5
2023-04-05T04:06:27.431Z,95744.3
2023-04-05T04:07:29.568Z,95745.2
2023-04-05T04:08:31.696Z,95747.9
2023-04-05T04:09:33.593Z,95745.9
2023-04-05T04:10:35.677Z,95744
2023-04-05T04:11:37.582Z,95744.8
2023-04-05T04:12:39.663Z,95747.2
2023-04-05T04:13:41.614Z,95746.1
2023-04-05T04:14:43.536Z,95745.2
2023-04-05T04:15:45.469Z,95743
2023-04-05T04:16:48.153Z,95741.7
2023-04-05T04:17:50.090Z,95742.5
2023-04-05T04:18:52.067Z,95742.8
2023-04-05T04:19:54.064Z,95743.7
2023-04-05T04:20:55.995Z,95739.9
2023-04-05T04:21:58.082Z,95738.4
2023-04-05T04:23:00.190Z,95740.3
2023-04-05T04:24:02.309Z,95746.7
2023-04-05T04:25:04.189Z,95743.3
2023-04-05T04:26:06.183Z,95744.1
2023-04-05T04:27:08.535Z,95746.6
2023-04-05T04:28:10.678Z,95744
2023-04-05T04:29:12.566Z,95747.1
2023-04-05T04:30:14.295Z,95744.5
2023-04-05T04:31:16.548Z,95751
2023-04-05T04:32:18.305Z,95748.3
2023-04-05T04:33:20.415Z,95748
2023-04-05T04:34:22.358Z,95747.1
2023-04-05T04:35:24.491Z,95748.1
2023-04-05T04:36:26.895Z,95743.3
2023-04-05T04:37:29.028Z,95748.4
2023-04-05T04:38:31.122Z,95747.5
2023-04-05T04:39:33.203Z,95743.7
2023-04-05T04:40:35.213Z,95748.3
2023-04-05T04:41:37.205Z,95747.7
2023-04-05T04:42:39.424Z,95747.3
2023-04-05T04:43:41.290Z,95746
2023-04-05T04:44:43.491Z,95747.3
2023-04-05T04:45:46.062Z,95748.2
2023-04-05T04:46:48.166Z,95751.5
2023-04-05T04:47:50.285Z,95748.4
2023-04-05T04:48:52.296Z,95748.2
2023-04-05T04:49:54.392Z,95749.6
2023-04-05T04:50:56.584Z,95745.6
2023-04-05T04:51:58.313Z,95748.4
2023-04-05T04:53:00.289Z,95745.8
2023-04-05T04:54:02.459Z,95746.9
2023-04-05T04:55:04.586Z,95747.5
2023-04-05T04:56:06.660Z,95742.8
2023-04-05T04:57:08.806Z,95742.2
2023-04-05T04:58:10.967Z,95741.8
2023-04-05T04:59:13.090Z,95744.3
2023-04-05T05:00:15.273Z,95743.3
2023-04-05T05:01:17.608Z,95743.1
2023-04-05T05:02:19.754Z,95739.9
2023-04-05T05:03:21.640Z,95741.4
2023-04-05T05:04:23.837Z,95743.3
2023-04-05T05:05:25.809Z,95744.6
2023-04-05T05:06:27.841Z,95747.7
2023-04-05T05:07:29.989Z,95748.6
2023-04-05T05:08:31.909Z,95747.9
2023-04-05T05:09:34.142Z,95748.4
2023-04-05T05:10:36.089Z,95748.8
2023-04-05T05:11:38.210Z,95751
2023-04-05T05:12:40.101Z,95746.2
2023-04-05T05:13:42.060Z,95751.4
2023-04-05T05:14:43.608Z,95749.5
2023-04-05T05:15:45.707Z,95746.5
2023-04-05T05:16:47.864Z,95743.3
2023-04-05T05:17:50.094Z,95743.7
2023-04-05T05:18:52.276Z,95746.9
2023-04-05T05:20:59.483Z,95745.9
2023-04-05T05:22:01.659Z,95743.8
2023-04-05T05:23:03.570Z,95746.7
2023-04-05T05:24:05.673Z,95745.9
2023-04-05T05:25:07.764Z,95745.8
2023-04-05T05:26:09.699Z,95744.9
2023-04-05T05:27:11.797Z,95748.3
2023-04-05T05:28:13.883Z,95748.6
2023-04-05T05:29:16.012Z,95749.8
2023-04-05T05:30:17.929Z,95747
2023-04-05T05:31:19.790Z,95746.7
2023-04-05T05:32:21.906Z,95748.4
2023-04-05T05:33:23.630Z,95745.8
2023-04-05T05:34:25.710Z,95746.2
2023-04-05T05:35:27.943Z,95744.2
2023-04-05T05:36:30.145Z,95745.6
2023-04-05T05:37:32.381Z,95745.9
2023-04-05T05:38:34.510Z,95750.5
2023-04-05T05:39:36.694Z,95746.5
2023-04-05T05:40:39.103Z,95748
2023-04-05T05:41:41.670Z,95748.2
2023-04-05T05:42:43.768Z,95750.5
2023-04-05T05:43:45.866Z,95748.8
2023-04-05T05:44:48.005Z,95752.9
2023-04-05T05:45:50.189Z,95753.5
2023-04-05T05:46:52.112Z,95756.7
2023-04-05T05:47:54.215Z,95757
2023-04-05T05:48:56.362Z,95759.5
2023-04-05T05:49:58.464Z,95758
2023-04-05T05:51:00.389Z,95757.1
2023-04-05T05:52:02.546Z,95759.6
2023-04-05T05:53:04.535Z,95756.1
2023-04-05T05:54:06.652Z,95756
2023-04-05T05:55:08.550Z,95757.2
2023-04-05T05:56:10.641Z,95757.9
2023-04-05T05:57:12.554Z,95761.2
2023-04-05T05:58:14.654Z,95760.2
2023-04-05T05:59:16.745Z,95757.9
2023-04-05T06:00:19.064Z,95764
2023-04-05T06:01:21.155Z,95760.6
2023-04-05T06:02:23.269Z,95758.9
2023-04-05T06:03:25.766Z,95760.4
2023-04-05T06:04:28.822Z,95762.2
2023-04-05T06:05:31.008Z,95761
2023-04-05T06:06:32.919Z,95761.3
2023-04-05T06:07:34.602Z,95764.1
2023-04-05T06:08:36.840Z,95766.2
2023-04-05T06:09:39.025Z,95766.5
2023-04-05T06:10:41.807Z,95765.1
2023-04-05T06:12:49.232Z,95766.2
2023-04-05T06:13:51.368Z,95762.7
2023-04-05T06:14:53.504Z,95763.8
2023-04-05T06:15:55.578Z,95761.4
2023-04-05T06:16:57.757Z,95769.7
2023-04-05T06:18:00.117Z,95768.3
2023-04-05T06:19:02.379Z,95768.7
2023-04-05T06:20:04.475Z,95772
2023-04-05T06:21:06.406Z,95769.8
2023-04-05T06:22:08.317Z,95772.1
2023-04-05T06:23:10.402Z,95770.7
2023-04-05T06:24:12.690Z,95771.4
2023-04-05T06:25:18.737Z,95772.8
2023-04-05T06:26:20.874Z,95769.3
2023-04-05T06:27:22.982Z,95769.6
2023-04-05T06:28:25.279Z,95768
2023-04-05T06:29:27.534Z,95769.8
2023-04-05T06:30:29.433Z,95768.8
2023-04-05T06:31:31.768Z,95772.2
2023-04-05T06:32:34.176Z,95769.9
2023-04-05T06:33:36.331Z,95770.8
2023-04-05T06:34:38.231Z,95770
2023-04-05T06:35:40.377Z,95767.6
2023-04-05T06:36:42.405Z,95770.5
2023-04-05T06:37:44.487Z,95769.2
2023-04-05T06:38:46.596Z,95769.5
2023-04-05T06:39:48.785Z,95772.1
2023-04-05T06:40:50.702Z,95773.6
2023-04-05T06:41:52.811Z,95772
2023-04-05T06:42:54.690Z,95770.1
2023-04-05T06:43:56.606Z,95775.8
2023-04-05T06:44:58.448Z,95768.8
2023-04-05T06:46:00.810Z,95768.7
2023-04-05T06:47:02.982Z,95768.2
2023-04-05T06:48:05.286Z,95768.8
2023-04-05T06:49:07.513Z,95770.8
2023-04-05T06:50:09.453Z,95771
2023-04-05T06:51:11.583Z,95770.3
2023-04-05T06:52:13.505Z,95770.3
2023-04-05T06:53:15.447Z,95767.7
2023-04-05T06:54:18.085Z,95768.9
2023-04-05T06:55:20.084Z,95769
2023-04-05T06:56:22.208Z,95771.9
2023-04-05T06:57:24.096Z,95766.4
2023-04-05T06:58:26.181Z,95767.2
2023-04-05T06:59:28.600Z,95767.3
2023-04-05T07:00:30.820Z,95766.9
2023-04-05T07:01:32.929Z,95760.9
2023-04-05T07:02:37.513Z,95763.4
2023-04-05T07:03:39.296Z,95763.5
2023-04-05T07:04:41.524Z,95760
2023-04-05T07:05:43.680Z,95762
2023-04-05T07:06:45.792Z,95765.9
2023-04-05T07:07:47.960Z,95765.8
2023-04-05T07:08:50.037Z,95760
2023-04-05T07:09:52.144Z,95760.2
2023-04-05T07:10:54.140Z,95762.2
2023-04-05T07:11:56.093Z,95765.3
2023-04-05T07:12:57.802Z,95763.7
2023-04-05T07:13:59.714Z,95766.9
2023-04-05T07:15:01.836Z,95761
2023-04-05T07:16:04.820Z,95758.5
2023-04-05T07:17:06.895Z,95755
2023-04-05T07:18:08.820Z,95758.4
2023-04-05T07:19:10.749Z,95763.7
2023-04-05T07:20:12.445Z,95758.9
2023-04-05T07:21:14.362Z,95755.2
2023-04-05T07:22:16.469Z,95756.9
2023-04-05T07:23:19.043Z,95758.3
2023-04-05T07:24:23.303Z,95760.4
2023-04-05T07:25:25.228Z,95762.6
2023-04-05T07:26:27.263Z,95763.7
2023-04-05T07:27:29.196Z,95762.4
2023-04-05T07:28:30.941Z,95758.6
2023-04-05T07:29:33.329Z,95763
2023-04-05T07:30:35.420Z,95758.1
2023-04-05T07:31:37.676Z,95764.8
2023-04-05T07:32:40.229Z,95766
2023-04-05T07:33:42.429Z,95766.5
2023-04-05T07:34:44.526Z,95761.6
2023-04-05T07:35:46.884Z,95761.4
2023-04-05T07:36:48.874Z,95759.6
2023-04-05T07:37:50.792Z,95761.7
2023-04-05T07:38:52.907Z,95767.3
2023-04-05T07:39:55.046Z,95762.6
2023-04-05T07:40:57.145Z,95761.7
2023-04-05T07:41:59.224Z,95761.4
2023-04-05T07:43:01.392Z,95763.6
2023-04-05T07:44:03.524Z,95762.8
2023-04-05T07:45:05.670Z,95764.4
2023-04-05T07:46:08.085Z,95768.6
2023-04-05T07:47:10.360Z,95765.9
2023-04-05T07:48:12.723Z,95768.6
2023-04-05T07:49:14.663Z,95768.8
2023-04-05T07:50:16.563Z,95767.7
2023-04-05T07:51:18.682Z,95771.8
2023-04-05T07:52:20.788Z,95769.3
2023-04-05T07:53:22.895Z,95779.5
2023-04-05T07:54:25.071Z,95779.5
2023-04-05T07:55:27.005Z,95775.3
2023-04-05T07:56:28.884Z,95778.2
2023-04-05T07:57:31.144Z,95772.8
2023-04-05T07:58:33.335Z,95777.8
2023-04-05T07:59:35.729Z,95779.6
2023-04-05T08:00:38.090Z,95776.8
2023-04-05T08:01:40.392Z,95775.7
2023-04-05T08:02:42.654Z,95779.8
2023-04-05T08:03:45.296Z,95783.9
2023-04-05T08:04:47.729Z,95773.4
2023-04-05T08:05:49.983Z,95773.9
2023-04-05T08:06:52.094Z,95774.1
2023-04-05T08:07:54.177Z,95773
2023-04-05T08:08:56.263Z,95777.3
2023-04-05T08:09:58.183Z,95774.7
2023-04-05T08:11:00.078Z,95776
2023-04-05T08:12:02.233Z,95772.8
2023-04-05T08:13:04.229Z,95776.8
2023-04-05T08:14:06.329Z,95777
2023-04-05T08:15:08.079Z,95779.7
2023-04-05T08:16:10.446Z,95781
2023-04-05T08:17:12.638Z,95779.9
2023-04-05T08:18:14.726Z,95777.2
2023-04-05T08:19:17.111Z,95783
2023-04-05T08:20:19.218Z,95779.2
2023-04-05T08:21:21.138Z,95773.8
2023-04-05T08:22:22.858Z,95779.7
2023-04-05T08:23:24.979Z,95776.9
2023-04-05T08:24:27.141Z,95773.7
2023-04-05T08:25:29.085Z,95771.7
2023-04-05T08:26:31.177Z,95776.9
2023-04-05T08:27:33.261Z,95776
2023-04-05T08:28:35.477Z,95778.6
2023-04-05T08:29:37.421Z,95774.9
2023-04-05T08:30:40.294Z,95772.9
2023-04-05T08:31:42.896Z,95775.8
2023-04-05T08:32:45.270Z,95777.2
2023-04-05T08:33:47.237Z,95773.1
2023-04-05T08:34:49.335Z,95777.6
2023-04-05T08:35:51.520Z,95776.1
2023-04-05T08:36:53.560Z,95778.3
2023-04-05T08:37:55.665Z,95779.1
2023-04-05T08:38:57.570Z,95775.3
2023-04-05T08:39:59.659Z,95773.7
2023-04-05T08:41:01.872Z,95776.8
2023-04-05T08:42:03.959Z,95773.1
2023-04-05T08:43:05.837Z,95774.7
2023-04-05T08:44:08.063Z,95772
2023-04-05T08:45:10.018Z,95772.7
2023-04-05T08:46:12.341Z,95768.9
2023-04-05T08:47:14.527Z,95780.9
2023-04-05T08:48:16.497Z,95774.2
2023-04-05T08:49:18.560Z,95773.3
2023-04-05T08:50:20.632Z,95776.9
2023-04-05T08:51:22.615Z,95769.7
2023-04-05T08:52:24.691Z,95768.9
2023-04-05T08:53:26.793Z,95772.8
2023-04-05T08:54:28.716Z,95772.1
2023-04-05T08:55:30.836Z,95767.9
2023-04-05T08:56:32.398Z,95768.7
2023-04-05T08:57:34.511Z,95768.2
2023-04-05T08:58:36.397Z,95764.6
2023-04-05T08:59:39.104Z,95776.8
2023-04-05T09:00:42.193Z,95779.3
2023-04-05T09:01:44.962Z,95776.7
2023-04-05T09:02:47.225Z,95776.5
2023-04-05T09:03:49.650Z,95774.2
2023-04-05T09:04:51.855Z,95776
2023-04-05T09:05:53.983Z,95777.5
2023-04-05T09:06:56.157Z,95775.4
2023-04-05T09:07:58.068Z,95772.3
2023-04-05T09:09:00.224Z,95771
2023-04-05T09:10:02.402Z,95771.1
2023-04-05T09:11:04.507Z,95774.2
2023-04-05T09:12:06.270Z,95773.7
2023-04-05T09:13:09.147Z,95771.7
2023-04-05T09:14:11.268Z,95771.7
2023-04-05T09:15:13.534Z,95768.8
2023-04-05T09:16:15.654Z,95765.1
2023-04-05T09:17:17.965Z,95764
2023-04-05T09:19:25.138Z,95771.4
2023-04-05T09:20:27.257Z,95766.7
2023-04-05T09:21:28.991Z,95768
2023-04-05T09:22:30.948Z,95765
2023-04-05T09:23:32.923Z,95769.2
2023-04-05T09:24:35.278Z,95764.8
2023-04-05T09:25:37.668Z,95767.4
2023-04-05T09:26:39.876Z,95764.8
2023-04-05T09:27:41.808Z,95766.3
2023-04-05T09:28:43.591Z,95766.7
2023-04-05T09:29:45.791Z,95769.5
2023-04-05T09:30:48.174Z,95766.2
2023-04-05T09:31:50.489Z,95766.4
2023-04-05T09:32:52.695Z,95763.3
2023-04-05T09:33:54.933Z,95769.7
2023-04-05T09:34:56.639Z,95771.4
2023-04-05T09:35:59.103Z,95766.9
2023-04-05T09:37:01.221Z,95761.2
2023-04-05T09:38:03.356Z,95767.6
2023-04-05T09:39:05.269Z,95769.7
2023-04-05T09:40:07.015Z,95765.6
2023-04-05T09:41:09.198Z,95769
2023-04-05T09:42:11.315Z,95765.8
2023-04-05T09:43:13.248Z,95769.5
2023-04-05T09:44:15.004Z,95768.3
2023-04-05T09:45:17.152Z,95766.6
2023-04-05T09:46:19.433Z,95764.3
2023-04-05T09:47:21.641Z,95768.5
2023-04-05T09:48:23.737Z,95766.8
2023-04-05T09:49:25.629Z,95765.6
2023-04-05T09:50:27.846Z,95777.8
2023-04-05T09:51:29.721Z,95772.7
2023-04-05T09:52:31.812Z,95767.7
2023-04-05T09:53:34.089Z,95763.6
2023-04-05T09:54:35.913Z,95762
2023-04-05T09:55:37.816Z,95763.8
2023-04-05T09:56:39.988Z,95763.3
2023-04-05T09:57:42.105Z,95771.2
2023-04-05T09:58:44.224Z,95766.2
2023-04-05T09:59:46.170Z,95765.2
2023-04-05T10:00:48.091Z,95764.7
2023-04-05T10:01:50.227Z,95763.4
2023-04-05T10:02:53.079Z,95766.7
2023-04-05T10:03:55.618Z,95763.2
2023-04-05T10:04:57.661Z,95759.5
2023-04-05T10:05:59.763Z,95754.9
2023-04-05T10:07:01.963Z,95756.3
2023-04-05T10:08:03.957Z,95762.2
2023-04-05T10:09:06.181Z,95761.3
2023-04-05T10:10:08.213Z,95761.1
2023-04-05T10:11:10.118Z,95760.4
2023-04-05T10:12:12.284Z,95761.6
2023-04-05T10:13:14.396Z,95760.5
2023-04-05T10:14:16.525Z,95765
2023-04-05T10:15:18.604Z,95761.1
2023-04-05T10:16:21.119Z,95762.4
2023-04-05T10:17:23.337Z,95760.8
2023-04-05T10:18:25.480Z,95757.1
2023-04-05T10:19:27.380Z,95759.4
2023-04-05T10:20:29.313Z,95754.3
2023-04-05T10:21:31.396Z,95754.2
2023-04-05T10:22:33.507Z,95754.8
2023-04-05T10:23:35.445Z,95750.6
2023-04-05T10:24:37.648Z,95753.8
2023-04-05T10:25:39.593Z,95745.6
2023-04-05T10:26:41.478Z,95743.6
2023-04-05T10:27:43.573Z,95744.8
2023-04-05T10:28:45.711Z,95748.4
2023-04-05T10:29:47.826Z,95746
2023-04-05T10:30:50.019Z,95747.2
2023-04-05T10:31:52.453Z,95743.6
2023-04-05T10:32:55.661Z,95741.5
2023-04-05T10:33:58.013Z,95742.5
2023-04-05T10:35:00.127Z,95747.5
2023-04-05T10:36:02.358Z,95741.3
2023-04-05T10:37:04.475Z,95739.6
2023-04-05T10:38:06.654Z,95737.4
2023-04-05T10:39:08.625Z,95734.7
2023-04-05T10:40:10.684Z,95737.1
2023-04-05T10:41:12.888Z,95741.1
2023-04-05T10:42:14.921Z,95744.8
2023-04-05T10:43:16.735Z,95744.8
2023-04-05T10:45:23.882Z,95743.4
2023-04-05T10:46:26.388Z,95743
2023-04-05T10:47:28.684Z,95736.2
2023-04-05T10:48:31.002Z,95734.6
2023-04-05T10:49:33.201Z,95737
2023-04-05T10:50:35.393Z,95732.8
2023-04-05T10:51:37.747Z,95734.4
2023-04-05T10:52:40.009Z,95736.4
2023-04-05T10:53:42.023Z,95731.7
2023-04-05T10:54:44.053Z,95731.9
2023-04-05T10:55:46.255Z,95732.9
2023-04-05T10:56:48.172Z,95729.9
2023-04-05T10:57:50.257Z,95736.8
2023-04-05T10:58:52.678Z,95730.2
2023-04-05T10:59:55.201Z,95731.1
2023-04-05T11:00:57.795Z,95728.9
2023-04-05T11:02:00.606Z,95725.3
2023-04-05T11:03:03.108Z,95728.1
2023-04-05T11:04:05.903Z,95729.5
2023-04-05T11:05:08.280Z,95722
2023-04-05T11:06:10.227Z,95721.5
2023-04-05T11:07:12.343Z,95717.7
2023-04-05T11:08:14.251Z,95723.4
2023-04-05T11:09:16.189Z,95730.1
2023-04-05T11:10:18.137Z,95731.8
2023-04-05T11:11:20.261Z,95731.3
2023-04-05T11:12:22.381Z,95730.5
2023-04-05T11:13:24.495Z,95725.5
2023-04-05T11:14:26.627Z,95729.7
2023-04-05T11:15:28.778Z,95727.5
2023-04-05T11:16:30.689Z,95726
2023-04-05T11:17:32.701Z,95726.2
2023-04-05T11:18:34.951Z,95724.1
2023-04-05T11:19:37.248Z,95726.8
2023-04-05T11:20:39.934Z,95724.1
2023-04-05T11:21:42.606Z,95723.9
2023-04-05T11:22:44.324Z,95718.3
2023-04-05T11:23:46.419Z,95724.9
2023-04-05T11:24:48.513Z,95717.5
2023-04-05T11:25:50.499Z,95714.2
2023-04-05T11:26:52.692Z,95715.1
2023-04-05T11:27:54.608Z,95717
2023-04-05T11:28:56.513Z,95715.8
2023-04-05T11:29:58.438Z,95717.4
2023-04-05T11:31:00.861Z,95713.4
2023-04-05T11:32:02.822Z,95716.6
2023-04-05T11:33:04.970Z,95716.6
2023-04-05T11:34:06.743Z,95716.2
2023-04-05T11:35:08.757Z,95707.1
2023-04-05T11:36:11.221Z,95712.4
2023-04-05T11:37:13.238Z,95714.3
2023-04-05T11:38:15.150Z,95714.9
2023-04-05T11:39:17.220Z,95713.4
2023-04-05T11:40:19.125Z,95709.6
2023-04-05T11:41:21.221Z,95708.1
2023-04-05T11:42:23.388Z,95705.5
2023-04-05T11:43:25.498Z,95705.9
2023-04-05T11:44:27.599Z,95705.1
2023-04-05T11:46:34.906Z,95706
2023-04-05T11:47:37.247Z,95708.8
2023-04-05T11:48:39.312Z,95704.7
2023-04-05T11:49:41.527Z,95703.3
2023-04-05T11:50:44.608Z,95699.5
2023-04-05T11:51:46.699Z,95704.5
2023-04-05T11:52:48.780Z,95698.2
2023-04-05T11:53:50.706Z,95697.6
2023-04-05T11:54:52.829Z,95701.6
2023-04-05T11:55:54.764Z,95693
2023-04-05T11:56:56.707Z,95692.9
2023-04-05T11:57:58.626Z,95693.7
2023-04-05T11:59:00.901Z,95694.9
2023-04-05T12:00:03.145Z,95701.1
2023-04-05T12:01:04.828Z,95702
2023-04-05T12:02:06.804Z,95701.9
2023-04-05T12:03:09.235Z,95697
2023-04-05T12:04:11.255Z,95698
2023-04-05T12:05:13.552Z,95697.7
2023-04-05T12:06:15.965Z,95693.3
2023-04-05T12:07:18.160Z,95698.6
2023-04-05T12:08:20.308Z,95701.1
2023-04-05T12:09:22.399Z,95695.3
2023-04-05T12:10:24.488Z,95698
2023-04-05T12:11:26.613Z,95700.2
2023-04-05T12:12:28.517Z,95700.3
2023-04-05T12:13:30.691Z,95698
2023-04-05T12:14:32.588Z,95699.5
2023-04-05T12:15:34.507Z,95694.6
2023-04-05T12:16:36.634Z,95696.5
2023-04-05T12:17:38.990Z,95698
2023-04-05T12:18:41.169Z,95698.1
2023-04-05T12:19:43.094Z,95695.9
2023-04-05T12:20:45.184Z,95692.7
2023-04-05T12:21:47.394Z,95692.3
2023-04-05T12:22:49.527Z,95690.6
2023-04-05T12:23:51.466Z,95690.8
2023-04-05T12:24:53.575Z,95690.3
2023-04-05T12:25:55.693Z,95691.5
2023-04-05T12:28:02.697Z,95686.1
2023-04-05T12:29:04.843Z,95680.5
2023-04-05T12:30:06.737Z,95685
2023-04-05T12:31:08.859Z,95682.9
2023-04-05T12:32:11.438Z,95687.3
2023-04-05T12:33:13.552Z,95687.4
2023-04-05T12:34:15.566Z,95684.5
2023-04-05T12:35:17.697Z,95685.8
2023-04-05T12:36:19.801Z,95683.2
2023-04-05T12:37:21.854Z,95680.2
2023-04-05T12:38:23.976Z,95680.4
2023-04-05T12:39:26.092Z,95680.8
2023-04-05T12:40:28.207Z,95684.3
2023-04-05T12:41:30.309Z,95679.8
2023-04-05T12:42:32.228Z,95681.6